sensor_id;sensor_type;location;lat;lon;timestamp;pressure;altitude;pressure_sealevel;temperature;humidity
75891;BME280;64571;47.512;19.054;2023-12-20T00:01:31;100687.53;;;-0.49;100.00
75891;BME280;64571;47.512;19.054;2023-12-20T00:04:34;100697.09;;;-0.33;100.00
75891;BME280;64571;47.512;19.054;2023-12-20T00:07:37;100700.03;;;-0.35;100.00
75891;BME280;64571;47.512;19.054;2023-12-20T00:10:40;100693.00;;;-0.49;100.00
75891;BME280;64571;47.512;19.054;2023-12-20T00:13:43;100690.78;;;-0.34;100.00
75891;BME280;64571;47.512;19.054;2023-12-20T00:16:49;100683.91;;;-0.43;100.00
75891;BME280;64571;47.512;19.054;2023-12-20T00:19:51;100670.19;;;-0.30;100.00
75891;BME280;64571;47.512;19.054;2023-12-20T00:22:56;100656.88;;;-0.51;100.00
75891;BME280;64571;47.512;19.054;2023-12-20T00:26:00;100669.69;;;-0.52;100.00
75891;BME280;64571;47.512;19.054;2023-12-20T00:29:02;100666.56;;;-0.55;100.00
75891;BME280;64571;47.512;19.054;2023-12-20T00:32:06;100657.31;;;-0.54;100.00
75891;BME280;64571;47.512;19.054;2023-12-20T00:35:08;100658.19;;;-0.60;100.00
75891;BME280;64571;47.512;19.054;2023-12-20T00:38:11;100653.38;;;-0.58;100.00
75891;BME280;64571;47.512;19.054;2023-12-20T00:41:13;100650.97;;;-0.48;100.00
75891;BME280;64571;47.512;19.054;2023-12-20T00:44:16;100640.09;;;-0.55;100.00
75891;BME280;64571;47.512;19.054;2023-12-20T00:47:19;100619.75;;;-0.59;100.00
75891;BME280;64571;47.512;19.054;2023-12-20T00:50:21;100624.94;;;-0.51;100.00
75891;BME280;64571;47.512;19.054;2023-12-20T00:53:25;100613.63;;;-0.54;100.00
75891;BME280;64571;47.512;19.054;2023-12-20T00:56:28;100611.53;;;-0.52;100.00
75891;BME280;64571;47.512;19.054;2023-12-20T00:59:31;100594.31;;;-0.53;100.00
75891;BME280;64571;47.512;19.054;2023-12-20T01:02:33;100612.34;;;-0.45;100.00
75891;BME280;64571;47.512;19.054;2023-12-20T01:05:36;100594.66;;;-0.42;100.00
75891;BME280;64571;47.512;19.054;2023-12-20T01:08:38;100611.38;;;-0.32;100.00
75891;BME280;64571;47.512;19.054;2023-12-20T01:11:41;100601.53;;;-0.33;100.00
75891;BME280;64571;47.512;19.054;2023-12-20T01:14:43;100602.59;;;-0.34;100.00
75891;BME280;64571;47.512;19.054;2023-12-20T01:17:46;100599.16;;;-0.55;100.00
75891;BME280;64571;47.512;19.054;2023-12-20T01:20:49;100592.59;;;-0.47;100.00
75891;BME280;64571;47.512;19.054;2023-12-20T01:23:52;100593.53;;;-0.60;100.00
75891;BME280;64571;47.512;19.054;2023-12-20T01:26:54;100589.34;;;-0.62;100.00
75891;BME280;64571;47.512;19.054;2023-12-20T01:29:57;100584.16;;;-0.70;100.00
75891;BME280;64571;47.512;19.054;2023-12-20T01:33:00;100565.66;;;-0.68;100.00
75891;BME280;64571;47.512;19.054;2023-12-20T01:36:04;100574.59;;;-0.55;100.00
75891;BME280;64571;47.512;19.054;2023-12-20T01:39:06;100564.97;;;-0.57;100.00
75891;BME280;64571;47.512;19.054;2023-12-20T01:42:26;100568.75;;;-0.58;100.00
75891;BME280;64571;47.512;19.054;2023-12-20T01:45:28;100552.66;;;-0.66;100.00
75891;BME280;64571;47.512;19.054;2023-12-20T01:48:31;100536.31;;;-0.73;100.00
75891;BME280;64571;47.512;19.054;2023-12-20T01:51:34;100550.19;;;-0.81;100.00
75891;BME280;64571;47.512;19.054;2023-12-20T01:54:38;100535.81;;;-0.95;100.00
75891;BME280;64571;47.512;19.054;2023-12-20T01:57:42;100541.72;;;-0.98;100.00
75891;BME280;64571;47.512;19.054;2023-12-20T02:00:46;100528.13;;;-1.05;100.00
75891;BME280;64571;47.512;19.054;2023-12-20T02:03:49;100519.44;;;-0.95;100.00
75891;BME280;64571;47.512;19.054;2023-12-20T02:06:52;100517.25;;;-0.80;100.00
75891;BME280;64571;47.512;19.054;2023-12-20T02:09:55;100506.97;;;-0.78;100.00
75891;BME280;64571;47.512;19.054;2023-12-20T02:12:58;100497.44;;;-0.68;100.00
75891;BME280;64571;47.512;19.054;2023-12-20T02:16:00;100480.34;;;-0.82;100.00
75891;BME280;64571;47.512;19.054;2023-12-20T02:19:07;100484.47;;;-0.73;100.00
75891;BME280;64571;47.512;19.054;2023-12-20T02:22:15;100471.06;;;-0.74;100.00
75891;BME280;64571;47.512;19.054;2023-12-20T02:25:18;100474.59;;;-0.67;100.00
75891;BME280;64571;47.512;19.054;2023-12-20T02:28:20;100478.41;;;-0.50;100.00
75891;BME280;64571;47.512;19.054;2023-12-20T02:31:25;100468.81;;;-0.59;100.00
75891;BME280;64571;47.512;19.054;2023-12-20T02:34:27;100463.72;;;-0.49;100.00
75891;BME280;64571;47.512;19.054;2023-12-20T02:37:30;100467.47;;;-0.50;100.00
75891;BME280;64571;47.512;19.054;2023-12-20T02:40:33;100461.41;;;-0.52;100.00
75891;BME280;64571;47.512;19.054;2023-12-20T02:43:35;100463.19;;;-0.39;100.00
75891;BME280;64571;47.512;19.054;2023-12-20T02:46:38;100449.75;;;-0.41;100.00
75891;BME280;64571;47.512;19.054;2023-12-20T02:49:41;100459.00;;;-0.42;100.00
75891;BME280;64571;47.512;19.054;2023-12-20T02:52:46;100430.13;;;-0.49;100.00
75891;BME280;64571;47.512;19.054;2023-12-20T02:55:49;100440.87;;;-0.36;100.00
75891;BME280;64571;47.512;19.054;2023-12-20T02:58:51;100440.81;;;-0.48;100.00
75891;BME280;64571;47.512;19.054;2023-12-20T03:01:54;100434.84;;;-0.63;100.00
75891;BME280;64571;47.512;19.054;2023-12-20T03:04:57;100426.50;;;-0.68;100.00
75891;BME280;64571;47.512;19.054;2023-12-20T03:08:02;100417.41;;;-0.81;100.00
75891;BME280;64571;47.512;19.054;2023-12-20T03:11:05;100424.41;;;-0.66;100.00
75891;BME280;64571;47.512;19.054;2023-12-20T03:14:08;100427.44;;;-0.56;100.00
75891;BME280;64571;47.512;19.054;2023-12-20T03:17:10;100428.78;;;-0.65;100.00
75891;BME280;64571;47.512;19.054;2023-12-20T03:20:13;100431.84;;;-0.55;100.00
75891;BME280;64571;47.512;19.054;2023-12-20T03:23:16;100433.34;;;-0.59;100.00
75891;BME280;64571;47.512;19.054;2023-12-20T03:26:18;100437.09;;;-0.54;100.00
75891;BME280;64571;47.512;19.054;2023-12-20T03:29:21;100424.72;;;-0.56;100.00
75891;BME280;64571;47.512;19.054;2023-12-20T03:32:24;100434.53;;;-0.48;100.00
75891;BME280;64571;47.512;19.054;2023-12-20T03:35:26;100441.25;;;-0.51;100.00
75891;BME280;64571;47.512;19.054;2023-12-20T03:38:29;100432.47;;;-0.53;100.00
75891;BME280;64571;47.512;19.054;2023-12-20T03:41:31;100443.94;;;-0.44;100.00
75891;BME280;64571;47.512;19.054;2023-12-20T03:44:34;100439.16;;;-0.49;100.00
75891;BME280;64571;47.512;19.054;2023-12-20T03:47:37;100434.38;;;-0.54;100.00
75891;BME280;64571;47.512;19.054;2023-12-20T03:50:39;100427.59;;;-0.51;100.00
75891;BME280;64571;47.512;19.054;2023-12-20T03:53:42;100433.50;;;-0.54;100.00
75891;BME280;64571;47.512;19.054;2023-12-20T03:56:45;100431.62;;;-0.54;100.00
75891;BME280;64571;47.512;19.054;2023-12-20T03:59:47;100426.28;;;-0.67;100.00
75891;BME280;64571;47.512;19.054;2023-12-20T04:02:50;100422.66;;;-0.61;100.00
75891;BME280;64571;47.512;19.054;2023-12-20T04:05:53;100417.34;;;-0.56;100.00
75891;BME280;64571;47.512;19.054;2023-12-20T04:08:55;100412.12;;;-0.57;100.00
75891;BME280;64571;47.512;19.054;2023-12-20T04:11:58;100422.66;;;-0.61;100.00
75891;BME280;64571;47.512;19.054;2023-12-20T04:15:01;100402.56;;;-0.66;100.00
75891;BME280;64571;47.512;19.054;2023-12-20T04:18:03;100419.69;;;-0.59;100.00
75891;BME280;64571;47.512;19.054;2023-12-20T04:21:06;100423.06;;;-0.57;100.00
75891;BME280;64571;47.512;19.054;2023-12-20T04:24:09;100416.09;;;-0.53;100.00
75891;BME280;64571;47.512;19.054;2023-12-20T04:27:12;100396.03;;;-0.65;100.00
75891;BME280;64571;47.512;19.054;2023-12-20T04:30:15;100398.94;;;-0.60;100.00
75891;BME280;64571;47.512;19.054;2023-12-20T04:33:17;100396.59;;;-0.57;100.00
75891;BME280;64571;47.512;19.054;2023-12-20T04:36:20;100394.03;;;-0.52;100.00
75891;BME280;64571;47.512;19.054;2023-12-20T04:39:23;100384.28;;;-0.66;100.00
75891;BME280;64571;47.512;19.054;2023-12-20T04:42:25;100391.25;;;-0.70;100.00
75891;BME280;64571;47.512;19.054;2023-12-20T04:45:28;100381.19;;;-0.69;100.00
75891;BME280;64571;47.512;19.054;2023-12-20T04:48:30;100371.66;;;-0.60;100.00
75891;BME280;64571;47.512;19.054;2023-12-20T04:51:33;100363.47;;;-0.60;100.00
75891;BME280;64571;47.512;19.054;2023-12-20T04:54:37;100334.56;;;-0.68;100.00
75891;BME280;64571;47.512;19.054;2023-12-20T04:57:39;100329.47;;;-0.83;100.00
75891;BME280;64571;47.512;19.054;2023-12-20T05:00:42;100348.75;;;-0.59;100.00
75891;BME280;64571;47.512;19.054;2023-12-20T05:03:44;100337.69;;;-0.64;100.00
75891;BME280;64571;47.512;19.054;2023-12-20T05:06:47;100317.59;;;-0.70;100.00
75891;BME280;64571;47.512;19.054;2023-12-20T05:09:50;100320.03;;;-0.62;100.00
75891;BME280;64571;47.512;19.054;2023-12-20T05:12:52;100322.97;;;-0.63;100.00
75891;BME280;64571;47.512;19.054;2023-12-20T05:15:55;100325.41;;;-0.55;100.00
75891;BME280;64571;47.512;19.054;2023-12-20T05:18:58;100318.56;;;-0.64;100.00
75891;BME280;64571;47.512;19.054;2023-12-20T05:22:03;100318.13;;;-0.61;100.00
75891;BME280;64571;47.512;19.054;2023-12-20T05:25:06;100309.78;;;-0.66;100.00
75891;BME280;64571;47.512;19.054;2023-12-20T05:28:08;100315.00;;;-0.65;100.00
75891;BME280;64571;47.512;19.054;2023-12-20T05:31:11;100322.81;;;-0.68;100.00
75891;BME280;64571;47.512;19.054;2023-12-20T05:34:14;100315.53;;;-0.74;100.00
75891;BME280;64571;47.512;19.054;2023-12-20T05:37:16;100340.62;;;-0.66;100.00
75891;BME280;64571;47.512;19.054;2023-12-20T05:40:19;100342.00;;;-0.57;100.00
75891;BME280;64571;47.512;19.054;2023-12-20T05:43:22;100320.16;;;-0.75;100.00
75891;BME280;64571;47.512;19.054;2023-12-20T05:46:25;100329.22;;;-0.81;100.00
75891;BME280;64571;47.512;19.054;2023-12-20T05:49:28;100312.72;;;-0.68;100.00
75891;BME280;64571;47.512;19.054;2023-12-20T05:52:30;100307.44;;;-0.63;100.00
75891;BME280;64571;47.512;19.054;2023-12-20T05:55:33;100304.87;;;-0.76;100.00
75891;BME280;64571;47.512;19.054;2023-12-20T05:58:37;100298.59;;;-0.77;100.00
75891;BME280;64571;47.512;19.054;2023-12-20T06:01:40;100295.75;;;-0.70;100.00
75891;BME280;64571;47.512;19.054;2023-12-20T06:04:43;100285.44;;;-0.68;100.00
75891;BME280;64571;47.512;19.054;2023-12-20T06:07:46;100289.34;;;-0.75;100.00
75891;BME280;64571;47.512;19.054;2023-12-20T06:10:51;100291.59;;;-0.72;100.00
75891;BME280;64571;47.512;19.054;2023-12-20T06:13:53;100287.50;;;-0.63;100.00
75891;BME280;64571;47.512;19.054;2023-12-20T06:16:57;100270.00;;;-0.74;100.00
75891;BME280;64571;47.512;19.054;2023-12-20T06:20:00;100284.16;;;-0.47;100.00
75891;BME280;64571;47.512;19.054;2023-12-20T06:23:04;100279.16;;;-0.50;100.00
75891;BME280;64571;47.512;19.054;2023-12-20T06:26:08;100291.22;;;-0.58;100.00
75891;BME280;64571;47.512;19.054;2023-12-20T06:29:12;100283.56;;;-0.49;100.00
75891;BME280;64571;47.512;19.054;2023-12-20T06:32:14;100273.78;;;-0.57;100.00
75891;BME280;64571;47.512;19.054;2023-12-20T06:35:17;100275.22;;;-0.36;100.00
75891;BME280;64571;47.512;19.054;2023-12-20T06:38:20;100292.44;;;-0.54;100.00
75891;BME280;64571;47.512;19.054;2023-12-20T06:41:23;100292.06;;;-0.39;100.00
75891;BME280;64571;47.512;19.054;2023-12-20T06:44:26;100311.44;;;-0.29;100.00
75891;BME280;64571;47.512;19.054;2023-12-20T06:47:29;100317.81;;;-0.16;100.00
75891;BME280;64571;47.512;19.054;2023-12-20T06:50:32;100325.78;;;-0.33;100.00
75891;BME280;64571;47.512;19.054;2023-12-20T06:53:34;100338.00;;;-0.36;100.00
75891;BME280;64571;47.512;19.054;2023-12-20T06:56:37;100320.31;;;-0.33;100.00
75891;BME280;64571;47.512;19.054;2023-12-20T06:59:41;100340.78;;;-0.24;100.00
75891;BME280;64571;47.512;19.054;2023-12-20T07:02:43;100346.41;;;-0.19;100.00
75891;BME280;64571;47.512;19.054;2023-12-20T07:05:46;100349.06;;;-0.31;100.00
75891;BME280;64571;47.512;19.054;2023-12-20T07:08:49;100342.53;;;-0.30;100.00
75891;BME280;64571;47.512;19.054;2023-12-20T07:11:52;100326.03;;;-0.35;100.00
75891;BME280;64571;47.512;19.054;2023-12-20T07:14:54;100338.87;;;-0.23;100.00
75891;BME280;64571;47.512;19.054;2023-12-20T07:17:58;100331.38;;;-0.28;100.00
75891;BME280;64571;47.512;19.054;2023-12-20T07:21:03;100328.75;;;-0.35;100.00
75891;BME280;64571;47.512;19.054;2023-12-20T07:24:06;100327.38;;;-0.26;100.00
75891;BME280;64571;47.512;19.054;2023-12-20T07:27:09;100325.72;;;-0.27;100.00
75891;BME280;64571;47.512;19.054;2023-12-20T07:30:12;100324.19;;;-0.22;100.00
75891;BME280;64571;47.512;19.054;2023-12-20T07:33:15;100332.16;;;-0.21;100.00
75891;BME280;64571;47.512;19.054;2023-12-20T07:36:19;100333.13;;;-0.15;100.00
75891;BME280;64571;47.512;19.054;2023-12-20T07:39:22;100337.38;;;-0.56;100.00
75891;BME280;64571;47.512;19.054;2023-12-20T07:42:25;100339.38;;;-0.27;100.00
75891;BME280;64571;47.512;19.054;2023-12-20T07:45:27;100324.97;;;-0.52;100.00
75891;BME280;64571;47.512;19.054;2023-12-20T07:48:30;100339.53;;;-0.40;100.00
75891;BME280;64571;47.512;19.054;2023-12-20T07:51:33;100336.94;;;-0.53;100.00
75891;BME280;64571;47.512;19.054;2023-12-20T07:54:35;100326.72;;;-0.58;100.00
75891;BME280;64571;47.512;19.054;2023-12-20T07:57:38;100329.34;;;-0.51;100.00
75891;BME280;64571;47.512;19.054;2023-12-20T08:00:41;100326.41;;;-0.49;100.00
75891;BME280;64571;47.512;19.054;2023-12-20T08:03:44;100316.00;;;-0.41;100.00
75891;BME280;64571;47.512;19.054;2023-12-20T08:06:46;100316.31;;;-0.49;100.00
75891;BME280;64571;47.512;19.054;2023-12-20T08:09:49;100313.81;;;-0.51;100.00
75891;BME280;64571;47.512;19.054;2023-12-20T08:12:53;100290.31;;;-0.52;100.00
75891;BME280;64571;47.512;19.054;2023-12-20T08:15:56;100312.53;;;-0.48;100.00
75891;BME280;64571;47.512;19.054;2023-12-20T08:18:58;100308.28;;;-0.44;100.00
75891;BME280;64571;47.512;19.054;2023-12-20T08:22:02;100300.09;;;-0.62;100.00
75891;BME280;64571;47.512;19.054;2023-12-20T08:25:04;100296.53;;;-0.63;100.00
75891;BME280;64571;47.512;19.054;2023-12-20T08:28:07;100316.38;;;-0.37;100.00
75891;BME280;64571;47.512;19.054;2023-12-20T08:31:16;100317.53;;;-0.45;100.00
75891;BME280;64571;47.512;19.054;2023-12-20T08:34:19;100306.66;;;-0.33;100.00
75891;BME280;64571;47.512;19.054;2023-12-20T08:37:22;100314.03;;;-0.34;100.00
75891;BME280;64571;47.512;19.054;2023-12-20T08:40:25;100319.78;;;-0.23;99.76
75891;BME280;64571;47.512;19.054;2023-12-20T08:43:28;100313.41;;;-0.17;99.87
75891;BME280;64571;47.512;19.054;2023-12-20T08:46:31;100306.66;;;-0.15;99.41
75891;BME280;64571;47.512;19.054;2023-12-20T08:49:34;100319.72;;;-0.17;99.20
75891;BME280;64571;47.512;19.054;2023-12-20T08:52:37;100308.84;;;-0.23;99.35
75891;BME280;64571;47.512;19.054;2023-12-20T08:55:39;100312.94;;;-0.14;99.22
75891;BME280;64571;47.512;19.054;2023-12-20T08:58:43;100318.34;;;-0.08;99.00
75891;BME280;64571;47.512;19.054;2023-12-20T09:01:45;100303.53;;;0.00;98.65
75891;BME280;64571;47.512;19.054;2023-12-20T09:04:50;100306.91;;;-0.05;98.68
75891;BME280;64571;47.512;19.054;2023-12-20T09:07:52;100317.09;;;0.07;98.59
75891;BME280;64571;47.512;19.054;2023-12-20T09:10:55;100312.00;;;0.10;98.22
75891;BME280;64571;47.512;19.054;2023-12-20T09:13:58;100310.59;;;0.19;97.73
75891;BME280;64571;47.512;19.054;2023-12-20T09:17:01;100296.47;;;0.22;97.29
75891;BME280;64571;47.512;19.054;2023-12-20T09:20:05;100310.41;;;0.33;97.15
75891;BME280;64571;47.512;19.054;2023-12-20T09:23:11;100297.00;;;0.43;96.67
75891;BME280;64571;47.512;19.054;2023-12-20T09:26:13;100307.84;;;0.61;95.92
75891;BME280;64571;47.512;19.054;2023-12-20T09:29:16;100298.09;;;0.54;95.01
75891;BME280;64571;47.512;19.054;2023-12-20T09:32:19;100290.66;;;0.72;94.77
75891;BME280;64571;47.512;19.054;2023-12-20T09:35:26;100288.41;;;0.81;95.05
75891;BME280;64571;47.512;19.054;2023-12-20T09:38:29;100283.97;;;0.80;94.96
75891;BME280;64571;47.512;19.054;2023-12-20T09:41:37;100273.66;;;0.82;95.03
75891;BME280;64571;47.512;19.054;2023-12-20T09:44:40;100270.78;;;0.89;94.91
75891;BME280;64571;47.512;19.054;2023-12-20T09:47:55;100262.09;;;0.92;94.48
75891;BME280;64571;47.512;19.054;2023-12-20T09:50:59;100243.91;;;0.97;94.22
75891;BME280;64571;47.512;19.054;2023-12-20T09:54:05;100250.47;;;1.08;94.03
75891;BME280;64571;47.512;19.054;2023-12-20T09:57:09;100243.91;;;1.09;93.25
75891;BME280;64571;47.512;19.054;2023-12-20T10:00:13;100232.69;;;1.22;93.17
75891;BME280;64571;47.512;19.054;2023-12-20T10:03:17;100242.25;;;1.60;91.87
75891;BME280;64571;47.512;19.054;2023-12-20T10:06:22;100248.69;;;1.54;91.05
75891;BME280;64571;47.512;19.054;2023-12-20T10:09:26;100238.69;;;1.48;91.15
75891;BME280;64571;47.512;19.054;2023-12-20T10:12:31;100227.56;;;1.66;90.88
75891;BME280;64571;47.512;19.054;2023-12-20T10:15:34;100215.75;;;1.77;90.32
75891;BME280;64571;47.512;19.054;2023-12-20T10:18:37;100216.63;;;1.95;89.46
75891;BME280;64571;47.512;19.054;2023-12-20T10:21:41;100220.81;;;2.14;88.70
75891;BME280;64571;47.512;19.054;2023-12-20T10:24:45;100232.91;;;2.01;88.68
75891;BME280;64571;47.512;19.054;2023-12-20T10:27:50;100203.63;;;1.73;90.13
75891;BME280;64571;47.512;19.054;2023-12-20T10:31:10;100192.34;;;1.87;89.45
75891;BME280;64571;47.512;19.054;2023-12-20T10:34:28;100175.44;;;1.90;89.27
75891;BME280;64571;47.512;19.054;2023-12-20T10:37:30;100176.78;;;2.04;89.15
75891;BME280;64571;47.512;19.054;2023-12-20T10:40:34;100182.09;;;2.11;89.01
75891;BME280;64571;47.512;19.054;2023-12-20T10:43:40;100167.81;;;2.09;89.25
75891;BME280;64571;47.512;19.054;2023-12-20T10:46:44;100153.53;;;2.23;89.02
75891;BME280;64571;47.512;19.054;2023-12-20T10:49:52;100164.66;;;2.34;88.71
75891;BME280;64571;47.512;19.054;2023-12-20T10:52:57;100152.69;;;2.40;88.54
75891;BME280;64571;47.512;19.054;2023-12-20T10:56:02;100159.91;;;2.46;88.60
75891;BME280;64571;47.512;19.054;2023-12-20T10:59:07;100146.19;;;2.63;88.31
75891;BME280;64571;47.512;19.054;2023-12-20T11:02:13;100157.03;;;2.74;87.98
75891;BME280;64571;47.512;19.054;2023-12-20T11:05:41;100152.34;;;2.92;87.33
75891;BME280;64571;47.512;19.054;2023-12-20T11:09:20;100149.16;;;3.22;86.91
75891;BME280;64571;47.512;19.054;2023-12-20T11:12:35;100143.47;;;3.28;87.17
75891;BME280;64571;47.512;19.054;2023-12-20T11:15:41;100133.06;;;3.52;87.15
75891;BME280;64571;47.512;19.054;2023-12-20T11:18:45;100123.00;;;3.63;87.25
75891;BME280;64571;47.512;19.054;2023-12-20T11:21:49;100126.00;;;3.62;88.25
75891;BME280;64571;47.512;19.054;2023-12-20T11:24:59;100100.22;;;3.68;88.04
75891;BME280;64571;47.512;19.054;2023-12-20T11:28:11;100099.53;;;3.83;87.73
75891;BME280;64571;47.512;19.054;2023-12-20T11:31:15;100079.62;;;3.97;87.14
75891;BME280;64571;47.512;19.054;2023-12-20T11:34:19;100067.25;;;4.00;86.73
75891;BME280;64571;47.512;19.054;2023-12-20T11:37:25;100065.66;;;4.09;86.58
75891;BME280;64571;47.512;19.054;2023-12-20T11:40:33;100066.22;;;4.06;86.56
75891;BME280;64571;47.512;19.054;2023-12-20T11:43:38;100066.59;;;4.20;86.54
75891;BME280;64571;47.512;19.054;2023-12-20T11:46:41;100073.12;;;4.14;86.54
75891;BME280;64571;47.512;19.054;2023-12-20T11:49:46;100079.06;;;4.32;86.43
75891;BME280;64571;47.512;19.054;2023-12-20T11:52:51;100060.87;;;4.31;86.07
75891;BME280;64571;47.512;19.054;2023-12-20T11:55:54;100075.19;;;4.28;86.67
75891;BME280;64571;47.512;19.054;2023-12-20T11:58:57;100057.87;;;4.33;86.82
75891;BME280;64571;47.512;19.054;2023-12-20T12:02:18;100071.56;;;4.70;85.94
75891;BME280;64571;47.512;19.054;2023-12-20T12:05:21;100066.12;;;4.86;85.49
75891;BME280;64571;47.512;19.054;2023-12-20T12:08:26;100057.97;;;5.06;85.02
75891;BME280;64571;47.512;19.054;2023-12-20T12:11:35;100052.22;;;5.23;84.63
75891;BME280;64571;47.512;19.054;2023-12-20T12:14:38;100055.31;;;5.52;84.02
75891;BME280;64571;47.512;19.054;2023-12-20T12:17:42;100052.03;;;5.70;82.98
75891;BME280;64571;47.512;19.054;2023-12-20T12:20:45;100050.69;;;5.93;82.30
75891;BME280;64571;47.512;19.054;2023-12-20T12:23:48;100044.09;;;5.99;82.26
75891;BME280;64571;47.512;19.054;2023-12-20T12:26:51;100046.28;;;5.97;82.62
75891;BME280;64571;47.512;19.054;2023-12-20T12:30:02;100045.72;;;6.05;83.11
75891;BME280;64571;47.512;19.054;2023-12-20T12:33:06;100053.16;;;6.20;83.50
75891;BME280;64571;47.512;19.054;2023-12-20T12:36:10;100056.75;;;6.31;83.80
75891;BME280;64571;47.512;19.054;2023-12-20T12:39:16;100058.09;;;6.28;84.03
75891;BME280;64571;47.512;19.054;2023-12-20T12:42:20;100055.91;;;6.25;84.23
75891;BME280;64571;47.512;19.054;2023-12-20T12:45:24;100059.22;;;6.22;84.57
75891;BME280;64571;47.512;19.054;2023-12-20T12:48:28;100048.75;;;6.09;84.63
75891;BME280;64571;47.512;19.054;2023-12-20T12:51:31;100050.13;;;6.01;84.88
75891;BME280;64571;47.512;19.054;2023-12-20T12:54:34;100058.69;;;6.05;85.06
75891;BME280;64571;47.512;19.054;2023-12-20T12:57:36;100066.97;;;6.05;85.15
75891;BME280;64571;47.512;19.054;2023-12-20T13:00:39;100066.41;;;5.98;85.14
75891;BME280;64571;47.512;19.054;2023-12-20T13:03:42;100068.59;;;5.91;85.27
75891;BME280;64571;47.512;19.054;2023-12-20T13:06:44;100039.91;;;5.76;85.37
75891;BME280;64571;47.512;19.054;2023-12-20T13:09:47;100064.16;;;5.90;85.76
75891;BME280;64571;47.512;19.054;2023-12-20T13:12:50;100066.91;;;5.79;85.83
75891;BME280;64571;47.512;19.054;2023-12-20T13:15:54;100063.63;;;5.77;86.00
75891;BME280;64571;47.512;19.054;2023-12-20T13:18:57;100059.47;;;5.70;86.21
75891;BME280;64571;47.512;19.054;2023-12-20T13:22:02;100059.47;;;5.65;86.36
75891;BME280;64571;47.512;19.054;2023-12-20T13:25:05;100040.72;;;5.62;86.33
75891;BME280;64571;47.512;19.054;2023-12-20T13:28:08;100036.31;;;5.50;86.17
75891;BME280;64571;47.512;19.054;2023-12-20T13:31:12;100042.06;;;5.44;86.18
75891;BME280;64571;47.512;19.054;2023-12-20T13:34:14;100043.16;;;5.38;86.17
75891;BME280;64571;47.512;19.054;2023-12-20T13:37:19;100050.03;;;5.35;86.62
75891;BME280;64571;47.512;19.054;2023-12-20T13:40:23;100054.47;;;5.36;86.75
75891;BME280;64571;47.512;19.054;2023-12-20T13:43:26;100051.97;;;5.34;86.48
75891;BME280;64571;47.512;19.054;2023-12-20T13:46:29;100054.72;;;5.29;86.56
75891;BME280;64571;47.512;19.054;2023-12-20T13:49:32;100040.94;;;5.29;86.50
75891;BME280;64571;47.512;19.054;2023-12-20T13:52:35;100046.97;;;5.26;86.49
75891;BME280;64571;47.512;19.054;2023-12-20T13:55:42;100034.31;;;5.15;86.47
75891;BME280;64571;47.512;19.054;2023-12-20T13:58:45;100044.22;;;5.21;86.70
75891;BME280;64571;47.512;19.054;2023-12-20T14:01:49;100039.22;;;5.13;86.58
75891;BME280;64571;47.512;19.054;2023-12-20T14:04:53;100046.97;;;5.16;86.81
75891;BME280;64571;47.512;19.054;2023-12-20T14:07:56;100047.50;;;5.13;86.70
75891;BME280;64571;47.512;19.054;2023-12-20T14:11:02;100037.03;;;5.10;86.62
75891;BME280;64571;47.512;19.054;2023-12-20T14:14:05;100041.97;;;5.03;86.81
75891;BME280;64571;47.512;19.054;2023-12-20T14:17:08;100046.34;;;4.99;87.06
75891;BME280;64571;47.512;19.054;2023-12-20T14:20:11;100052.69;;;4.99;86.95
75891;BME280;64571;47.512;19.054;2023-12-20T14:23:18;100064.78;;;4.93;87.29
75891;BME280;64571;47.512;19.054;2023-12-20T14:26:21;100058.72;;;4.91;87.13
75891;BME280;64571;47.512;19.054;2023-12-20T14:29:24;100056.47;;;4.78;87.85
75891;BME280;64571;47.512;19.054;2023-12-20T14:32:28;100049.28;;;4.77;87.95
75891;BME280;64571;47.512;19.054;2023-12-20T14:35:31;100055.06;;;4.75;87.96
75891;BME280;64571;47.512;19.054;2023-12-20T14:38:34;100065.84;;;4.82;88.19
75891;BME280;64571;47.512;19.054;2023-12-20T14:41:37;100061.75;;;4.90;88.49
75891;BME280;64571;47.512;19.054;2023-12-20T14:44:40;100050.72;;;4.90;88.29
75891;BME280;64571;47.512;19.054;2023-12-20T14:47:43;100081.59;;;4.97;88.36
75891;BME280;64571;47.512;19.054;2023-12-20T14:50:47;100077.75;;;5.03;88.55
75891;BME280;64571;47.512;19.054;2023-12-20T14:53:51;100078.88;;;5.07;88.25
75891;BME280;64571;47.512;19.054;2023-12-20T14:56:53;100051.03;;;4.98;88.20
75891;BME280;64571;47.512;19.054;2023-12-20T14:59:56;100069.78;;;5.06;88.47
75891;BME280;64571;47.512;19.054;2023-12-20T15:02:59;100091.31;;;5.10;88.28
75891;BME280;64571;47.512;19.054;2023-12-20T15:06:02;100087.16;;;5.07;88.28
75891;BME280;64571;47.512;19.054;2023-12-20T15:09:05;100087.41;;;5.00;88.35
75891;BME280;64571;47.512;19.054;2023-12-20T15:12:08;100100.09;;;5.06;88.50
75891;BME280;64571;47.512;19.054;2023-12-20T15:15:11;100101.19;;;5.05;88.51
75891;BME280;64571;47.512;19.054;2023-12-20T15:18:14;100119.91;;;5.03;88.55
75891;BME280;64571;47.512;19.054;2023-12-20T15:21:17;100121.25;;;4.96;88.25
75891;BME280;64571;47.512;19.054;2023-12-20T15:24:20;100121.97;;;4.81;88.57
75891;BME280;64571;47.512;19.054;2023-12-20T15:27:29;100123.66;;;4.82;88.69
75891;BME280;64571;47.512;19.054;2023-12-20T15:30:32;100134.63;;;4.77;88.84
75891;BME280;64571;47.512;19.054;2023-12-20T15:33:35;100129.66;;;4.74;89.07
75891;BME280;64571;47.512;19.054;2023-12-20T15:36:38;100124.38;;;4.67;89.21
75891;BME280;64571;47.512;19.054;2023-12-20T15:39:41;100129.66;;;4.69;89.13
75891;BME280;64571;47.512;19.054;2023-12-20T15:42:45;100130.47;;;4.69;89.44
75891;BME280;64571;47.512;19.054;2023-12-20T15:45:47;100134.84;;;4.65;89.31